Skip Navigation LinksHome page > Tools > METAR decoder Skip Navigation Links

METAR decoder

Settings

METAR

Chicago O'Hare Intl, Chicago

For information only: do not use for flight planning or navigation.
Latest weather
Observation time Tuesday, October 21, 2014 11:26 AM CDT
Local time Tuesday, October 21, 2014 11:40 AM CDT
Flight conditions Marginal Visual Meteorological Conditions
Winds
Wind direction North-Northeast (20°)
Wind speed 16 mph
Visibility 10 mi.
Sky condition
Ceiling 2,500 ft. broken clouds
Cloud layer broken clouds 2,500 ft.
Cloud layer broken clouds 4,500 ft.
Temperature 52°F
Dewpoint 39°F
Altimeter 30.17 in.Hg
Derived measurements
Relative humidity 62%
Density altitude 26 ft.
Remarks
Special weather observation.
METAR SPUS31 KWBC 211630 SPECI KORD 211626Z 02014KT 10SM BKN025 BKN045 11/04 A3017

InnerDrive.Weather 4.0.5399.0 Release CLR 4.0.30319.34014
Copyright ©2014 Inner Drive Technology. All rights reserved. Portions Copyright ©1986-2014 David Braverman.

Find weather

Site navigation


Skip Navigation Links

Place info

Page info

PayPal - The safer, easier way to pay online!

Return home.

Copyright ©2014 Inner Drive Technology. Purveyors of fine, hand-crafted computer software. Page printed 2014-10-21T16:40:05 UTC.